Time;durP1;ratioP1;P1;durP2;ratioP2;P2;SDS_P1;SDS_P2;PMS_P1;PMS_P2;Temp;Humidity;BMP_temperature;BMP_pressure;BME280_temperature;BME280_humidity;BME280_pressure;Samples;Min_cycle;Max_cycle;Signal;HPM_P1;HPM_P2
2023/08/08 00:00:08;;;;;;;2.10;1.30;;;14.90;99.90;;;;;;5053544;28;20354;-83
2023/08/08 00:02:34;;;;;;;2.83;1.20;;;15.00;99.90;;;;;;5050563;28;20959;-79
2023/08/08 00:04:59;;;;;;;2.30;1.27;;;15.10;99.90;;;;;;5052913;28;20427;-83
2023/08/08 00:07:25;;;;;;;1.80;1.20;;;15.20;99.90;;;;;;5039711;28;20239;-84
2023/08/08 00:09:50;;;;;;;3.20;1.57;;;15.20;99.90;;;;;;5055451;28;20196;-82
2023/08/08 00:12:16;;;;;;;1.73;1.23;;;15.20;99.90;;;;;;5038558;28;20832;-80
2023/08/08 00:14:41;;;;;;;0.87;0.77;;;15.30;99.90;;;;;;5050899;28;20209;-81
2023/08/08 00:17:07;;;;;;;3.90;1.40;;;15.40;99.90;;;;;;5041856;28;20236;-81
2023/08/08 00:19:32;;;;;;;0.90;0.80;;;15.60;99.90;;;;;;5051037;28;20226;-82
2023/08/08 00:21:58;;;;;;;1.40;1.30;;;15.50;99.90;;;;;;5037860;28;20687;-81
2023/08/08 00:24:23;;;;;;;3.70;1.67;;;15.50;99.90;;;;;;5052343;28;20203;-82
2023/08/08 00:26:49;;;;;;;3.07;1.20;;;15.50;99.90;;;;;;5049655;28;20264;-79
2023/08/08 00:29:14;;;;;;;4.37;1.33;;;15.40;99.90;;;;;;5051500;28;20903;-81
2023/08/08 00:31:40;;;;;;;3.17;1.70;;;15.40;99.90;;;;;;5039347;28;20181;-81
2023/08/08 00:34:05;;;;;;;3.20;1.00;;;15.40;99.90;;;;;;5035000;28;20315;-80
2023/08/08 00:36:31;;;;;;;2.37;1.37;;;15.40;99.90;;;;;;5049236;28;20213;-83
2023/08/08 00:38:56;;;;;;;2.13;1.57;;;15.40;99.90;;;;;;5049768;28;20177;-82
2023/08/08 00:41:22;;;;;;;2.00;1.37;;;15.30;99.90;;;;;;5055915;28;20193;-82
2023/08/08 00:43:47;;;;;;;1.80;1.20;;;15.30;99.90;;;;;;5054833;28;20204;-81
2023/08/08 00:46:14;;;;;;;3.33;1.67;;;15.30;99.90;;;;;;5053841;28;20680;-83
2023/08/08 00:48:39;;;;;;;2.40;1.70;;;15.30;99.90;;;;;;5029925;28;20205;-80
2023/08/08 00:51:05;;;;;;;1.47;1.20;;;15.30;99.90;;;;;;5038550;28;20514;-81
2023/08/08 00:53:31;;;;;;;2.43;1.23;;;15.30;99.90;;;;;;5055707;28;20628;-82
2023/08/08 00:55:58;;;;;;;3.43;1.10;;;15.30;99.90;;;;;;5054336;28;20235;-78
2023/08/08 00:58:24;;;;;;;3.47;1.60;;;15.30;99.90;;;;;;5039625;28;20490;-82
2023/08/08 01:00:50;;;;;;;3.07;1.67;;;15.20;99.90;;;;;;5054490;28;20434;-78
2023/08/08 01:03:15;;;;;;;8.93;1.60;;;15.20;99.90;;;;;;5056247;28;20224;-82
2023/08/08 01:05:53;;;;;;;1.90;1.37;;;15.20;99.90;;;;;;5048633;28;20590;-83
2023/08/08 01:08:26;;;;;;;1.77;1.43;;;15.10;99.90;;;;;;5050194;28;20235;-84
2023/08/08 01:10:52;;;;;;;3.13;1.50;;;15.20;99.90;;;;;;5032581;28;20428;-82
2023/08/08 01:13:23;;;;;;;1.67;1.10;;;15.20;99.90;;;;;;5049644;28;20466;-83
2023/08/08 01:15:49;;;;;;;1.90;1.00;;;15.20;99.90;;;;;;5045470;28;20498;-81
2023/08/08 01:18:16;;;;;;;1.97;1.20;;;15.30;99.90;;;;;;5025850;28;21054;-80
2023/08/08 01:20:45;;;;;;;3.50;1.70;;;15.30;99.90;;;;;;5026751;28;20435;-82
2023/08/08 01:23:35;;;;;;;2.20;1.57;;;15.40;99.90;;;;;;5026213;28;20451;-81
2023/08/08 01:26:02;;;;;;;1.53;1.37;;;15.40;99.90;;;;;;5045675;28;20950;-79
2023/08/08 01:28:27;;;;;;;2.53;1.70;;;15.50;99.90;;;;;;5036680;28;20449;-82
2023/08/08 01:30:53;;;;;;;2.63;1.43;;;15.50;99.90;;;;;;5030127;28;20438;-81
2023/08/08 01:33:19;;;;;;;1.53;1.43;;;15.50;99.90;;;;;;5045180;28;20212;-82
2023/08/08 01:35:51;;;;;;;2.83;1.27;;;15.60;99.90;;;;;;5028068;28;20828;-80
2023/08/08 01:38:29;;;;;;;2.40;1.37;;;15.70;99.90;;;;;;5041110;28;22282;-82
2023/08/08 01:40:57;;;;;;;1.60;1.00;;;15.70;99.90;;;;;;5045658;28;21203;-81
2023/08/08 01:43:24;;;;;;;5.73;1.30;;;15.60;99.90;;;;;;5045936;28;20459;-85
2023/08/08 01:45:51;;;;;;;1.70;1.23;;;15.60;99.90;;;;;;5029266;28;20498;-81
2023/08/08 01:48:16;;;;;;;2.10;1.50;;;15.70;99.90;;;;;;5050727;28;20484;-82
2023/08/08 01:50:42;;;;;;;2.33;1.40;;;15.70;99.90;;;;;;5047949;28;20451;-82
2023/08/08 01:53:07;;;;;;;1.80;1.20;;;15.50;99.90;;;;;;5047267;28;20464;-80
2023/08/08 01:55:33;;;;;;;3.00;1.50;;;15.50;99.90;;;;;;5031907;28;20181;-82
2023/08/08 01:57:58;;;;;;;2.23;1.47;;;15.40;99.90;;;;;;5049355;28;20231;-81
2023/08/08 02:00:24;;;;;;;3.73;1.30;;;15.30;99.90;;;;;;5027341;28;20177;-80
2023/08/08 02:02:50;;;;;;;2.93;1.10;;;15.20;99.90;;;;;;5045975;28;20205;-80
2023/08/08 02:05:15;;;;;;;1.33;1.10;;;15.20;99.90;;;;;;5032901;28;20185;-85
2023/08/08 02:07:41;;;;;;;2.30;1.07;;;15.20;99.90;;;;;;5044947;28;20188;-85
2023/08/08 02:10:06;;;;;;;2.57;1.93;;;15.20;99.90;;;;;;5030464;28;20191;-83
2023/08/08 02:12:32;;;;;;;2.70;1.33;;;15.20;99.90;;;;;;5049773;28;20605;-84
2023/08/08 02:14:58;;;;;;;2.57;1.63;;;15.20;99.90;;;;;;5030069;28;20435;-80
2023/08/08 02:17:25;;;;;;;2.67;1.30;;;15.10;99.90;;;;;;5045220;28;20512;-81
2023/08/08 02:19:51;;;;;;;6.73;1.63;;;15.10;99.90;;;;;;5040993;28;20181;-81
2023/08/08 02:22:17;;;;;;;3.57;1.20;;;15.20;99.90;;;;;;5044252;28;20439;-83
2023/08/08 02:24:42;;;;;;;2.30;1.47;;;15.10;99.90;;;;;;5040771;28;20931;-83
2023/08/08 02:27:08;;;;;;;3.77;1.20;;;15.10;99.90;;;;;;5046345;28;20480;-83
2023/08/08 02:29:33;;;;;;;3.57;1.30;;;15.00;99.90;;;;;;5031474;28;20181;-81
2023/08/08 02:31:59;;;;;;;1.70;1.10;;;15.10;99.90;;;;;;5043483;28;21406;-80
2023/08/08 02:34:24;;;;;;;2.23;1.33;;;15.10;99.90;;;;;;5041544;28;20235;-84
2023/08/08 02:36:50;;;;;;;1.10;1.00;;;15.00;99.90;;;;;;5046573;28;20249;-82
2023/08/08 02:39:15;;;;;;;2.20;1.67;;;14.80;99.90;;;;;;5045557;28;20193;-81
2023/08/08 02:41:42;;;;;;;2.90;1.40;;;14.60;99.90;;;;;;5032752;28;20216;-82
2023/08/08 02:44:08;;;;;;;3.03;1.40;;;14.50;99.90;;;;;;5051971;28;20723;-82
2023/08/08 02:46:33;;;;;;;6.23;1.80;;;14.40;99.90;;;;;;5033876;28;20437;-82
2023/08/08 02:48:59;;;;;;;3.07;1.80;;;14.20;99.90;;;;;;5047987;28;20189;-80
2023/08/08 02:51:24;;;;;;;2.60;1.40;;;14.20;99.90;;;;;;5044116;28;20194;-83
2023/08/08 02:53:50;;;;;;;1.43;1.20;;;14.20;99.90;;;;;;5029732;28;20917;-80
2023/08/08 02:56:15;;;;;;;5.53;1.60;;;14.20;99.90;;;;;;5032694;28;20200;-84
2023/08/08 02:58:41;;;;;;;2.33;1.47;;;14.30;99.90;;;;;;5034234;28;20211;-82
2023/08/08 03:01:06;;;;;;;2.47;1.50;;;14.40;99.90;;;;;;5034601;28;20177;-82
2023/08/08 03:03:32;;;;;;;3.90;1.80;;;14.50;99.90;;;;;;5048831;28;20213;-82
2023/08/08 03:05:57;;;;;;;1.77;1.20;;;14.60;99.90;;;;;;5035038;28;20599;-81
2023/08/08 03:08:23;;;;;;;1.80;1.23;;;14.70;99.90;;;;;;5050755;28;20180;-82
2023/08/08 03:10:49;;;;;;;3.13;1.23;;;14.80;99.90;;;;;;5035917;28;20185;-80
2023/08/08 03:13:15;;;;;;;2.20;1.27;;;14.90;99.90;;;;;;5044292;28;20344;-82
2023/08/08 03:15:40;;;;;;;5.40;1.70;;;14.90;99.90;;;;;;5051724;28;20502;-81
2023/08/08 03:18:05;;;;;;;2.80;1.73;;;14.90;99.90;;;;;;5037055;28;20216;-86
2023/08/08 03:20:31;;;;;;;4.70;1.53;;;14.80;99.90;;;;;;5038085;28;20207;-83
2023/08/08 03:22:57;;;;;;;3.80;1.37;;;14.70;99.90;;;;;;5051889;28;20718;-81
2023/08/08 03:25:22;;;;;;;2.00;1.70;;;14.80;99.90;;;;;;5036434;28;20219;-83
2023/08/08 03:27:48;;;;;;;2.00;1.67;;;14.70;99.90;;;;;;5036674;28;20194;-81
2023/08/08 03:30:13;;;;;;;2.03;1.17;;;14.80;99.90;;;;;;5038971;28;20189;-81
2023/08/08 03:32:39;;;;;;;1.27;1.00;;;14.70;99.90;;;;;;5044781;28;20188;-80
2023/08/08 03:35:06;;;;;;;2.70;1.50;;;14.70;99.90;;;;;;5044293;28;22121;-82
2023/08/08 03:37:31;;;;;;;3.47;1.57;;;14.70;99.90;;;;;;5044933;28;20204;-80
2023/08/08 03:39:57;;;;;;;1.57;1.10;;;14.80;99.90;;;;;;5036695;28;20435;-82
2023/08/08 03:42:22;;;;;;;3.40;1.37;;;14.80;99.90;;;;;;5028774;28;20569;-82
2023/08/08 03:44:48;;;;;;;1.53;1.43;;;14.80;99.90;;;;;;5045378;28;20201;-83
2023/08/08 03:47:13;;;;;;;4.03;1.50;;;14.90;99.90;;;;;;5046499;28;21218;-80
2023/08/08 03:49:39;;;;;;;2.50;1.30;;;14.90;99.90;;;;;;5039209;28;20212;-84
2023/08/08 03:52:05;;;;;;;3.23;1.47;;;15.00;99.90;;;;;;5034862;28;20671;-82
2023/08/08 03:54:30;;;;;;;2.40;1.10;;;15.10;99.90;;;;;;5028840;28;20228;-82
2023/08/08 03:56:56;;;;;;;1.33;1.20;;;15.10;99.90;;;;;;5043657;28;20606;-82
2023/08/08 03:59:21;;;;;;;2.63;1.40;;;15.10;99.90;;;;;;5045112;28;20185;-82
2023/08/08 04:01:47;;;;;;;3.47;1.60;;;15.00;99.90;;;;;;5041320;28;20264;-82
2023/08/08 04:04:13;;;;;;;2.93;1.33;;;15.00;99.90;;;;;;5046959;28;21147;-83
2023/08/08 04:06:38;;;;;;;3.07;1.30;;;15.00;99.90;;;;;;5028025;28;20180;-80
2023/08/08 04:09:04;;;;;;;1.53;1.10;;;15.00;99.90;;;;;;5044264;28;20187;-79
2023/08/08 04:11:29;;;;;;;3.37;1.33;;;14.90;99.90;;;;;;5023603;28;20195;-81
2023/08/08 04:13:55;;;;;;;5.33;1.37;;;14.90;99.90;;;;;;5044339;28;20587;-79
2023/08/08 04:16:21;;;;;;;3.07;1.60;;;14.90;99.90;;;;;;5038303;28;20184;-81
2023/08/08 04:18:46;;;;;;;1.67;1.57;;;14.90;99.90;;;;;;5047199;28;20438;-80
2023/08/08 04:21:12;;;;;;;2.30;1.40;;;14.90;99.90;;;;;;5051694;28;20289;-84
2023/08/08 04:23:37;;;;;;;1.93;1.30;;;14.80;99.90;;;;;;5046470;28;20204;-83
2023/08/08 04:26:03;;;;;;;1.23;1.13;;;14.80;99.90;;;;;;5033232;28;20188;-84
2023/08/08 04:28:28;;;;;;;4.93;1.47;;;14.90;99.90;;;;;;5038385;28;20248;-80
2023/08/08 04:30:54;;;;;;;4.20;1.50;;;14.90;99.90;;;;;;5035225;28;20200;-80
2023/08/08 04:33:19;;;;;;;7.43;1.63;;;15.00;99.90;;;;;;5032529;28;20208;-82
2023/08/08 04:35:45;;;;;;;2.60;1.60;;;15.00;99.90;;;;;;5026734;28;20181;-83
2023/08/08 04:38:10;;;;;;;3.80;1.30;;;15.20;99.90;;;;;;5033530;28;20207;-80
2023/08/08 04:40:36;;;;;;;3.13;1.33;;;15.90;99.90;;;;;;5050079;28;20169;-79
2023/08/08 04:43:01;;;;;;;1.50;1.10;;;16.20;99.90;;;;;;5062716;28;20219;-84
2023/08/08 04:45:28;;;;;;;2.87;1.27;;;16.50;99.90;;;;;;5055459;28;20271;-83
2023/08/08 04:47:54;;;;;;;1.93;1.50;;;17.00;99.90;;;;;;5034964;28;20298;-81
2023/08/08 04:50:19;;;;;;;2.00;1.80;;;17.90;99.90;;;;;;5057388;28;20444;-81
2023/08/08 04:52:45;;;;;;;2.20;1.47;;;18.30;99.90;;;;;;5039036;28;20238;-82
2023/08/08 04:55:11;;;;;;;1.60;1.10;;;18.70;99.90;;;;;;5034252;28;20204;-83
2023/08/08 04:57:36;;;;;;;1.67;1.43;;;19.40;99.90;;;;;;5052292;28;20215;-82
2023/08/08 05:00:05;;;;;;;2.50;1.40;;;18.80;99.90;;;;;;5032122;28;20178;-80
2023/08/08 05:02:30;;;;;;;1.60;1.10;;;18.90;99.90;;;;;;5038997;28;20213;-83
2023/08/08 05:04:56;;;;;;;2.33;1.50;;;18.30;99.90;;;;;;5036622;28;20833;-80
2023/08/08 05:07:21;;;;;;;2.83;1.23;;;18.40;99.90;;;;;;5043790;28;20193;-80
2023/08/08 05:09:47;;;;;;;1.57;1.23;;;17.40;99.90;;;;;;5049037;28;20180;-80
2023/08/08 05:12:12;;;;;;;1.73;1.20;;;16.60;99.90;;;;;;5039912;28;20181;-80
2023/08/08 05:14:38;;;;;;;2.10;1.37;;;16.10;99.90;;;;;;5051391;28;20208;-79
2023/08/08 05:17:04;;;;;;;2.57;1.60;;;16.00;99.90;;;;;;5030784;28;20467;-78
2023/08/08 05:19:29;;;;;;;1.77;1.10;;;16.30;99.90;;;;;;5048612;28;20549;-79
2023/08/08 05:21:55;;;;;;;3.80;1.77;;;17.00;99.90;;;;;;5034177;28;20246;-81
2023/08/08 05:24:20;;;;;;;2.97;1.80;;;17.80;99.90;;;;;;5052541;28;20769;-82
2023/08/08 05:26:46;;;;;;;4.37;1.57;;;18.20;99.90;;;;;;5023877;28;20268;-79
2023/08/08 05:29:11;;;;;;;1.73;1.37;;;19.00;99.90;;;;;;5028900;28;20571;-81
2023/08/08 05:31:37;;;;;;;3.03;1.00;;;19.70;99.90;;;;;;5036425;28;20184;-81
2023/08/08 05:34:02;;;;;;;6.43;1.47;;;19.90;99.90;;;;;;5041703;28;20215;-81
2023/08/08 05:36:28;;;;;;;3.67;1.80;;;19.70;99.90;;;;;;5052395;28;20241;-81
2023/08/08 05:38:53;;;;;;;3.23;1.00;;;20.60;99.90;;;;;;5044823;28;20661;-81
2023/08/08 05:41:19;;;;;;;2.53;1.77;;;20.90;99.90;;;;;;5048781;28;20165;-82
2023/08/08 05:43:45;;;;;;;1.53;1.40;;;;;;;;;;5048835;28;20219;-84
2023/08/08 05:46:10;;;;;;;3.10;1.80;;;20.60;99.90;;;;;;5047735;28;20488;-81
2023/08/08 05:48:36;;;;;;;2.33;1.30;;;21.30;99.90;;;;;;5051739;28;20943;-82
2023/08/08 05:51:04;;;;;;;3.13;1.53;;;21.90;99.90;;;;;;5051517;28;20228;-79
2023/08/08 05:53:31;;;;;;;3.53;1.20;;;22.60;99.90;;;;;;5063456;28;20202;-81
2023/08/08 05:55:56;;;;;;;2.70;1.33;;;22.20;99.90;;;;;;5051107;28;20503;-84
2023/08/08 05:58:22;;;;;;;5.40;1.50;;;22.20;99.90;;;;;;5047018;28;20514;-80
2023/08/08 06:00:48;;;;;;;2.33;1.10;;;22.50;99.90;;;;;;5061188;28;20192;-82
2023/08/08 06:03:13;;;;;;;5.57;1.77;;;23.20;99.90;;;;;;5064140;28;20831;-81
2023/08/08 06:05:39;;;;;;;2.80;1.30;;;23.40;99.90;;;;;;5031453;28;20189;-82
2023/08/08 06:08:07;;;;;;;1.20;1.00;;;;;;;;;;5038499;28;20395;-80
2023/08/08 06:10:33;;;;;;;4.67;2.10;;;25.60;99.90;;;;;;5022419;28;20196;-81
2023/08/08 06:13:00;;;;;;;4.80;1.30;;;24.80;99.10;;;;;;5035762;28;20482;-78
2023/08/08 06:15:25;;;;;;;3.50;1.40;;;24.80;99.40;;;;;;5015576;28;20443;-80
2023/08/08 06:17:51;;;;;;;3.00;1.60;;;24.40;99.90;;;;;;5020042;28;20814;-79
2023/08/08 06:20:16;;;;;;;2.20;1.40;;;24.90;98.80;;;;;;5021373;28;22352;-81
2023/08/08 06:22:42;;;;;;;3.13;1.33;;;23.40;97.90;;;;;;5025773;28;20226;-78
2023/08/08 06:25:08;;;;;;;3.13;1.40;;;23.50;99.90;;;;;;5042299;28;20234;-80
2023/08/08 06:27:33;;;;;;;1.53;1.33;;;23.80;99.90;;;;;;5019333;28;20307;-80
2023/08/08 06:29:59;;;;;;;1.70;1.30;;;23.60;99.20;;;;;;5022138;28;20185;-82
2023/08/08 06:32:24;;;;;;;2.93;1.30;;;24.50;99.90;;;;;;5040249;28;20196;-81
2023/08/08 06:34:50;;;;;;;3.70;1.23;;;23.40;98.30;;;;;;5040738;28;20215;-78
2023/08/08 06:37:15;;;;;;;6.90;2.20;;;23.90;99.90;;;;;;5021062;28;20216;-81
2023/08/08 06:39:41;;;;;;;2.30;1.40;;;25.20;99.30;;;;;;5041160;28;20184;-81
2023/08/08 06:42:07;;;;;;;2.90;1.50;;;23.90;97.80;;;;;;5018565;28;20187;-81
2023/08/08 06:44:33;;;;;;;2.53;1.17;;;25.20;98.80;;;;;;5047759;28;20441;-78
2023/08/08 06:46:59;;;;;;;5.90;1.53;;;26.20;96.50;;;;;;5063547;28;20164;-79
2023/08/08 06:49:24;;;;;;;4.83;1.53;;;25.10;96.50;;;;;;5043098;28;20438;-84
2023/08/08 06:51:50;;;;;;;2.27;1.20;;;25.30;95.70;;;;;;5026219;28;20189;-80
2023/08/08 06:54:15;;;;;;;1.50;1.10;;;25.90;95.90;;;;;;5046349;28;20213;-80
2023/08/08 06:56:41;;;;;;;2.50;1.37;;;26.00;96.10;;;;;;5032173;28;20252;-83
2023/08/08 06:59:06;;;;;;;4.83;1.70;;;27.10;94.60;;;;;;5023767;28;20191;-83
2023/08/08 07:01:32;;;;;;;3.83;2.07;;;27.00;92.10;;;;;;5024374;28;20196;-81
2023/08/08 07:03:58;;;;;;;2.60;1.47;;;26.70;92.90;;;;;;5041152;28;20266;-84
2023/08/08 07:06:23;;;;;;;6.40;1.63;;;26.50;92.10;;;;;;5031908;28;20187;-81
2023/08/08 07:08:49;;;;;;;3.97;1.70;;;27.00;91.10;;;;;;5043098;28;20474;-85
2023/08/08 07:11:14;;;;;;;2.63;1.40;;;24.10;92.10;;;;;;5042984;28;20403;-81
2023/08/08 07:13:40;;;;;;;3.40;1.50;;;23.40;94.10;;;;;;5040561;28;20235;-81
2023/08/08 07:16:05;;;;;;;3.37;1.50;;;23.00;95.10;;;;;;5033779;28;20952;-85
2023/08/08 07:18:31;;;;;;;5.50;1.30;;;24.00;96.40;;;;;;5032509;28;20294;-82
2023/08/08 07:20:56;;;;;;;4.83;1.37;;;25.10;96.00;;;;;;5045320;28;20188;-83
2023/08/08 07:23:22;;;;;;;4.10;1.30;;;26.20;93.70;;;;;;5033285;28;20207;-83
2023/08/08 07:25:48;;;;;;;2.50;1.50;;;26.50;92.70;;;;;;5034097;28;20185;-84
2023/08/08 07:28:14;;;;;;;2.00;1.40;;;26.60;90.20;;;;;;5042266;28;20441;-85
2023/08/08 07:30:40;;;;;;;1.83;1.23;;;25.20;92.00;;;;;;5045798;28;20181;-82
2023/08/08 07:33:07;;;;;;;3.60;1.60;;;27.00;92.70;;;;;;5026075;28;20458;-81
2023/08/08 07:35:33;;;;;;;1.90;1.50;;;27.70;89.20;;;;;;5034493;28;20451;-82
2023/08/08 07:37:58;;;;;;;2.43;1.67;;;27.80;86.60;;;;;;5046565;28;20886;-82
2023/08/08 07:40:24;;;;;;;2.53;1.40;;;28.30;85.70;;;;;;5045736;28;20212;-83
2023/08/08 07:42:49;;;;;;;3.23;1.67;;;27.70;83.10;;;;;;5043053;28;20688;-80
2023/08/08 07:45:16;;;;;;;1.90;1.43;;;27.80;85.90;;;;;;5038799;28;20472;-78
2023/08/08 07:47:41;;;;;;;2.37;1.33;;;27.90;77.60;;;;;;5033318;28;20321;-80
2023/08/08 07:50:08;;;;;;;1.43;1.00;;;27.90;83.70;;;;;;5040628;28;21196;-83
2023/08/08 07:52:35;;;;;;;1.50;1.13;;;27.60;84.50;;;;;;5028651;28;20173;-81
2023/08/08 07:55:00;;;;;;;1.73;0.93;;;27.70;85.30;;;;;;5019314;28;21429;-80
2023/08/08 07:57:30;;;;;;;2.60;1.33;;;28.80;78.40;;;;;;5036713;28;20483;-79
2023/08/08 07:59:56;;;;;;;2.40;1.57;;;28.00;77.30;;;;;;5039408;28;20185;-84
2023/08/08 08:02:21;;;;;;;1.70;1.13;;;26.40;81.50;;;;;;5024238;28;20440;-79
2023/08/08 08:04:47;;;;;;;3.43;1.87;;;23.90;83.70;;;;;;5020473;28;20204;-80
2023/08/08 08:07:13;;;;;;;3.40;1.60;;;23.90;90.10;;;;;;5041608;28;20671;-80
2023/08/08 08:09:38;;;;;;;1.70;1.20;;;23.60;91.40;;;;;;5038335;28;20185;-81
2023/08/08 08:12:04;;;;;;;1.93;0.80;;;22.70;91.40;;;;;;5043219;28;20201;-82
2023/08/08 08:14:30;;;;;;;3.63;1.30;;;22.60;92.70;;;;;;5020802;28;20208;-81
2023/08/08 08:16:56;;;;;;;5.63;1.17;;;21.00;94.80;;;;;;5027175;28;20462;-83
2023/08/08 08:19:22;;;;;;;4.17;1.20;;;21.00;95.00;;;;;;5023861;28;20198;-82
2023/08/08 08:21:47;;;;;;;2.67;1.17;;;21.40;95.90;;;;;;5031861;28;20254;-80
2023/08/08 08:24:13;;;;;;;4.20;1.37;;;21.30;95.70;;;;;;5033528;28;20493;-83
2023/08/08 08:26:38;;;;;;;1.30;0.90;;;21.40;95.40;;;;;;5036458;28;20181;-83
2023/08/08 08:29:04;;;;;;;2.97;1.00;;;21.80;95.70;;;;;;5040698;28;20196;-86
2023/08/08 08:31:30;;;;;;;4.07;1.60;;;21.50;96.10;;;;;;5049046;28;20284;-81
2023/08/08 08:33:55;;;;;;;2.03;1.20;;;21.40;96.70;;;;;;5040062;28;20209;-79
2023/08/08 08:36:21;;;;;;;1.70;1.40;;;;;;;;;;5029127;28;20638;-80
2023/08/08 08:38:47;;;;;;;1.73;1.50;;;21.40;97.20;;;;;;5030420;28;20668;-80
2023/08/08 08:41:17;;;;;;;2.07;1.47;;;21.40;97.60;;;;;;5039406;28;20689;-79
2023/08/08 08:43:43;;;;;;;2.03;1.57;;;21.60;96.60;;;;;;5043283;28;20446;-82
2023/08/08 08:46:11;;;;;;;1.30;1.00;;;21.00;97.10;;;;;;5039634;28;21550;-82
2023/08/08 08:48:37;;;;;;;1.70;1.00;;;21.80;96.90;;;;;;5026145;28;20196;-82
2023/08/08 08:51:03;;;;;;;4.13;1.50;;;22.30;96.40;;;;;;5044218;28;20453;-81
2023/08/08 08:53:29;;;;;;;5.47;1.50;;;;;;;;;;5049023;28;20564;-80
2023/08/08 08:55:57;;;;;;;2.50;1.13;;;24.00;95.00;;;;;;5031850;28;20436;-81
2023/08/08 08:58:24;;;;;;;2.20;1.40;;;24.80;94.10;;;;;;5042180;28;20471;-80
2023/08/08 09:00:50;;;;;;;4.00;1.67;;;22.70;93.70;;;;;;5045671;28;20485;-82
2023/08/08 09:03:16;;;;;;;6.23;1.83;;;22.30;94.50;;;;;;5043023;28;20467;-80
2023/08/08 09:05:43;;;;;;;4.63;1.30;;;21.90;95.40;;;;;;5024137;28;20544;-82
2023/08/08 09:08:11;;;;;;;3.13;1.30;;;22.90;97.30;;;;;;5045364;28;20446;-78
2023/08/08 09:10:37;;;;;;;3.67;1.17;;;22.00;94.90;;;;;;5031759;28;20444;-79
2023/08/08 09:13:03;;;;;;;3.00;1.53;;;22.20;95.90;;;;;;5030494;28;20503;-81
2023/08/08 09:15:34;;;;;;;4.03;2.00;;;23.40;97.80;;;;;;5037575;28;20234;-82
2023/08/08 09:18:01;;;;;;;3.50;2.13;;;24.30;96.60;;;;;;5046150;28;20210;-84
2023/08/08 09:20:30;;;;;;;3.37;1.30;;;25.20;93.80;;;;;;5047792;28;20518;-81
2023/08/08 09:22:56;;;;;;;1.90;1.40;;;24.80;95.00;;;;;;5032590;28;20832;-82
2023/08/08 09:25:23;;;;;;;2.37;1.33;;;24.80;94.10;;;;;;5023965;28;20447;-82
2023/08/08 09:27:50;;;;;;;4.70;1.90;;;24.80;93.50;;;;;;5027162;28;20959;-80
2023/08/08 09:30:19;;;;;;;2.87;1.60;;;23.90;94.40;;;;;;5023953;28;20535;-80
2023/08/08 09:32:45;;;;;;;3.50;1.40;;;24.90;92.40;;;;;;5039823;28;20541;-81
2023/08/08 09:35:11;;;;;;;3.17;1.93;;;24.80;91.70;;;;;;5022628;28;20510;-84
2023/08/08 09:37:38;;;;;;;5.23;2.60;;;24.60;93.40;;;;;;5040292;28;20479;-82
2023/08/08 09:40:05;;;;;;;3.10;1.10;;;24.70;91.40;;;;;;5022540;28;20435;-82
2023/08/08 09:42:31;;;;;;;1.93;1.13;;;23.50;90.40;;;;;;5043974;28;20970;-85
2023/08/08 09:44:57;;;;;;;2.37;1.50;;;23.40;90.40;;;;;;5044320;28;20441;-79
2023/08/08 09:47:24;;;;;;;4.00;1.10;;;22.90;92.10;;;;;;5040316;28;21429;-80
2023/08/08 09:49:50;;;;;;;2.67;1.53;;;23.70;93.50;;;;;;5029351;28;20470;-83
2023/08/08 09:52:16;;;;;;;2.37;1.20;;;24.20;92.50;;;;;;5048001;28;20488;-82
2023/08/08 09:54:42;;;;;;;5.20;1.33;;;;;;;;;;5045994;28;20532;-81
2023/08/08 09:57:08;;;;;;;1.60;0.90;;;25.50;90.50;;;;;;5034042;28;20840;-82
2023/08/08 09:59:35;;;;;;;3.30;1.40;;;24.60;89.30;;;;;;5030609;28;20431;-79
2023/08/08 10:02:01;;;;;;;3.63;1.50;;;23.70;90.70;;;;;;5055806;28;20466;-82
2023/08/08 10:04:27;;;;;;;1.47;1.03;;;23.70;91.60;;;;;;5044522;28;20467;-79
2023/08/08 10:06:53;;;;;;;3.70;1.20;;;23.70;91.40;;;;;;5056473;28;20446;-79
2023/08/08 10:09:19;;;;;;;2.70;1.40;;;24.00;92.50;;;;;;5057880;28;20439;-82
2023/08/08 10:11:46;;;;;;;2.07;1.50;;;23.30;90.60;;;;;;5041218;28;20224;-83
2023/08/08 10:14:14;;;;;;;2.70;1.40;;;22.90;91.30;;;;;;5049513;28;20482;-81
2023/08/08 10:16:41;;;;;;;2.70;1.27;;;23.00;91.10;;;;;;5025226;28;21481;-84
2023/08/08 10:19:07;;;;;;;3.37;1.60;;;22.90;92.80;;;;;;5041370;28;20506;-82
2023/08/08 10:21:34;;;;;;;5.43;1.80;;;21.40;91.20;;;;;;5042222;28;20432;-81
2023/08/08 10:24:08;;;;;;;3.40;2.00;;;21.90;95.30;;;;;;5048119;28;20200;-82
2023/08/08 10:26:50;;;;;;;3.70;1.37;;;21.60;94.20;;;;;;5042674;28;20490;-80
2023/08/08 10:29:19;;;;;;;2.20;1.07;;;21.50;92.80;;;;;;5046779;28;20439;-82
2023/08/08 10:31:52;;;;;;;2.67;1.33;;;21.40;94.20;;;;;;5042925;28;20443;-82
2023/08/08 10:34:21;;;;;;;3.10;1.73;;;21.40;95.30;;;;;;5030842;28;20467;-84
2023/08/08 10:36:52;;;;;;;3.63;1.40;;;21.40;96.00;;;;;;5030188;28;20443;-83
2023/08/08 10:39:19;;;;;;;8.63;3.80;;;21.30;93.80;;;;;;5048753;28;20488;-82
2023/08/08 10:41:50;;;;;;;8.63;3.90;;;21.10;93.90;;;;;;5044528;28;20470;-82
2023/08/08 10:44:25;;;;;;;13.30;9.60;;;20.80;95.00;;;;;;5043287;28;20457;-86
2023/08/08 10:46:53;;;;;;;4.30;1.87;;;20.70;96.40;;;;;;5028170;28;20531;-83
2023/08/08 10:49:19;;;;;;;3.13;1.90;;;20.50;96.70;;;;;;5030457;28;20447;-85
2023/08/08 10:51:47;;;;;;;3.70;1.60;;;21.00;97.00;;;;;;5035377;28;20800;-83
2023/08/08 10:54:13;;;;;;;4.67;1.47;;;20.90;95.70;;;;;;5045896;28;20466;-83
2023/08/08 10:56:39;;;;;;;4.07;1.60;;;21.00;97.30;;;;;;5045519;28;20498;-84
2023/08/08 10:59:16;;;;;;;4.10;1.80;;;21.20;98.10;;;;;;5051472;28;20447;-81
2023/08/08 11:01:45;;;;;;;4.93;1.37;;;20.90;95.20;;;;;;5050530;28;20196;-84
2023/08/08 11:04:11;;;;;;;3.40;1.30;;;20.90;95.60;;;;;;5031502;28;20471;-83
2023/08/08 11:06:37;;;;;;;1.43;1.13;;;20.60;94.00;;;;;;5045627;28;20427;-85
2023/08/08 11:09:06;;;;;;;2.67;1.50;;;20.90;97.30;;;;;;5056586;28;20552;-85
2023/08/08 11:11:42;;;;;;;4.90;1.37;;;20.90;97.50;;;;;;5029712;28;20462;-84
2023/08/08 11:14:13;;;;;;;1.93;1.20;;;20.50;93.40;;;;;;5044984;28;20955;-84
2023/08/08 11:16:39;;;;;;;4.80;1.20;;;20.60;93.90;;;;;;5031543;28;21367;-85
2023/08/08 11:19:05;;;;;;;1.83;1.53;;;20.80;96.20;;;;;;5045168;28;20494;-84
2023/08/08 11:21:34;;;;;;;3.57;2.53;;;20.90;94.90;;;;;;5047636;28;20557;-85
2023/08/08 11:24:00;;;;;;;3.60;1.47;;;;;;;;;;5047007;28;20205;-86
2023/08/08 11:26:27;;;;;;;5.53;1.50;;;21.80;96.20;;;;;;5041980;28;20525;-84
2023/08/08 11:28:53;;;;;;;2.57;1.60;;;22.20;96.10;;;;;;5047584;28;20470;-85
2023/08/08 11:31:22;;;;;;;2.07;1.47;;;22.20;94.30;;;;;;5029534;28;20463;-85
2023/08/08 11:33:48;;;;;;;2.87;2.23;;;21.90;94.00;;;;;;5044564;28;20462;-87
2023/08/08 11:36:14;;;;;;;6.63;1.70;;;22.30;94.50;;;;;;5045082;28;20444;-86
2023/08/08 11:38:43;;;;;;;1.93;1.50;;;22.40;94.50;;;;;;5029469;28;20459;-85
2023/08/08 11:41:10;;;;;;;2.70;1.33;;;21.90;92.00;;;;;;5034740;28;20431;-83
2023/08/08 11:43:37;;;;;;;2.90;1.60;;;21.80;93.00;;;;;;5025444;28;21502;-86
2023/08/08 11:46:03;;;;;;;1.27;1.17;;;22.10;93.10;;;;;;5033564;28;20435;-83
2023/08/08 11:48:29;;;;;;;2.20;0.83;;;22.40;93.30;;;;;;5045594;28;20437;-84
2023/08/08 11:50:54;;;;;;;8.50;1.47;;;22.30;93.00;;;;;;5026913;28;20246;-81
2023/08/08 11:53:20;;;;;;;2.30;1.00;;;22.60;91.30;;;;;;5025451;28;20717;-84
2023/08/08 11:55:46;;;;;;;1.83;1.40;;;22.80;91.60;;;;;;5028834;28;20605;-84
2023/08/08 11:58:15;;;;;;;1.60;1.27;;;22.70;91.90;;;;;;5032412;28;20211;-86
2023/08/08 12:00:45;;;;;;;2.60;1.53;;;22.00;91.30;;;;;;5033135;28;20440;-83
2023/08/08 12:03:14;;;;;;;2.60;1.70;;;22.00;90.50;;;;;;5030283;28;20548;-84
2023/08/08 12:05:39;;;;;;;2.23;1.30;;;22.10;89.60;;;;;;5032042;28;20439;-85
2023/08/08 12:08:08;;;;;;;1.97;1.30;;;22.10;91.30;;;;;;5031089;28;20446;-80
2023/08/08 12:10:34;;;;;;;2.33;1.20;;;22.30;92.10;;;;;;5050820;28;20543;-84
2023/08/08 12:13:00;;;;;;;1.10;0.97;;;22.00;90.50;;;;;;5044139;28;20447;-86
2023/08/08 12:15:31;;;;;;;3.43;1.17;;;21.60;86.40;;;;;;5046121;28;20271;-84
2023/08/08 12:17:58;;;;;;;1.60;1.23;;;21.70;83.90;;;;;;5033325;28;20461;-86
2023/08/08 12:20:29;;;;;;;4.03;1.30;;;22.30;89.50;;;;;;5047645;28;20439;-82
2023/08/08 12:22:54;;;;;;;2.80;0.90;;;22.60;87.20;;;;;;5049617;28;20458;-80
2023/08/08 12:25:20;;;;;;;2.00;1.00;;;22.10;82.20;;;;;;5046674;28;20465;-80
2023/08/08 12:27:45;;;;;;;2.47;1.73;;;21.60;83.50;;;;;;5049046;28;20561;-83
2023/08/08 12:30:11;;;;;;;1.40;1.20;;;21.60;84.80;;;;;;5030544;28;20626;-83
2023/08/08 12:32:36;;;;;;;3.07;1.30;;;21.90;87.50;;;;;;5044040;28;20211;-82
2023/08/08 12:35:02;;;;;;;2.07;1.20;;;21.90;85.60;;;;;;5044753;28;20602;-82
2023/08/08 12:37:28;;;;;;;5.27;1.80;;;21.90;81.00;;;;;;5046143;28;20771;-83
2023/08/08 12:39:53;;;;;;;1.57;1.07;;;21.40;82.40;;;;;;5046600;28;20247;-79
2023/08/08 12:42:19;;;;;;;1.27;0.90;;;21.50;85.60;;;;;;5030239;28;21157;-83